Time;durP1;ratioP1;P1;durP2;ratioP2;P2;SDS_P1;SDS_P2;PMS_P1;PMS_P2;Temp;Humidity;BMP_temperature;BMP_pressure;BME280_temperature;BME280_humidity;BME280_pressure;Samples;Min_cycle;Max_cycle;Signal;HPM_P1;HPM_P2
2021/05/12 00:01:11;;;;;;;3.10;1.58;;;24.10;35.90;;;;;;5008648;28;20222;-40
2021/05/12 00:03:37;;;;;;;2.17;1.63;;;24.10;36.00;;;;;;5009145;28;20219;-44
2021/05/12 00:06:03;;;;;;;1.70;1.60;;;24.10;35.90;;;;;;5008618;28;20242;-40
2021/05/12 00:08:29;;;;;;;3.55;1.85;;;24.10;36.00;;;;;;4999483;28;20199;-44
2021/05/12 00:10:55;;;;;;;2.05;1.50;;;24.10;35.80;;;;;;5009444;28;20226;-41
2021/05/12 00:13:21;;;;;;;1.40;1.30;;;24.00;35.80;;;;;;5009514;28;20223;-44
2021/05/12 00:15:47;;;;;;;1.75;1.60;;;24.10;35.90;;;;;;5010380;28;20857;-40
2021/05/12 00:18:18;;;;;;;1.85;1.75;;;24.10;35.80;;;;;;5010075;28;20331;-40
2021/05/12 00:20:44;;;;;;;3.22;1.80;;;24.10;35.80;;;;;;5010199;28;20240;-42
2021/05/12 00:23:13;;;;;;;1.90;1.80;;;24.10;35.80;;;;;;5007652;28;20963;-41
2021/05/12 00:25:39;;;;;;;2.40;1.52;;;24.00;35.80;;;;;;5008783;28;20298;-41
2021/05/12 00:28:05;;;;;;;1.88;1.65;;;24.00;35.80;;;;;;5007794;28;20211;-40
2021/05/12 00:30:31;;;;;;;1.90;1.60;;;24.10;35.90;;;;;;5009506;28;20218;-41
2021/05/12 00:32:57;;;;;;;3.88;1.55;;;24.00;35.70;;;;;;5009180;28;20231;-40
2021/05/12 00:35:23;;;;;;;2.17;1.55;;;24.00;35.90;;;;;;5008960;28;20199;-41
2021/05/12 00:37:49;;;;;;;2.60;1.55;;;24.10;35.90;;;;;;5010042;28;20207;-40
2021/05/12 00:40:15;;;;;;;1.75;1.65;;;24.10;35.90;;;;;;5010436;28;20206;-43
2021/05/12 00:42:41;;;;;;;2.13;1.52;;;24.10;36.00;;;;;;5007908;28;20786;-41
2021/05/12 00:45:07;;;;;;;1.98;1.50;;;24.10;35.90;;;;;;5010953;28;20230;-45
2021/05/12 00:47:33;;;;;;;1.73;1.35;;;24.00;35.80;;;;;;5011682;28;20238;-46
2021/05/12 00:49:59;;;;;;;1.90;1.70;;;24.10;35.90;;;;;;5014044;28;20587;-49
2021/05/12 00:52:25;;;;;;;1.88;1.52;;;24.00;35.70;;;;;;5012270;28;20223;-42
2021/05/12 00:54:52;;;;;;;2.28;1.70;;;24.00;35.80;;;;;;5012155;28;20203;-46
2021/05/12 00:57:18;;;;;;;2.05;1.48;;;24.10;35.80;;;;;;5012628;28;20207;-49
2021/05/12 00:59:44;;;;;;;1.45;1.35;;;24.00;35.80;;;;;;5013527;28;20575;-47
2021/05/12 01:02:10;;;;;;;3.53;1.55;;;24.10;35.80;;;;;;5012383;28;20703;-48
2021/05/12 01:04:36;;;;;;;1.85;1.52;;;24.10;35.90;;;;;;5012302;28;20218;-53
2021/05/12 01:07:02;;;;;;;1.50;1.40;;;24.10;36.00;;;;;;5011912;28;20226;-46
2021/05/12 01:09:28;;;;;;;3.90;1.80;;;24.00;35.90;;;;;;5007431;28;20216;-43
2021/05/12 01:11:54;;;;;;;2.25;1.60;;;24.00;35.80;;;;;;5011523;28;20322;-46
2021/05/12 01:14:20;;;;;;;2.33;1.55;;;24.00;36.00;;;;;;5010487;28;20651;-45
2021/05/12 01:16:46;;;;;;;2.83;1.50;;;24.00;35.90;;;;;;5013327;28;20207;-42
2021/05/12 01:19:12;;;;;;;2.53;1.60;;;24.00;35.70;;;;;;5012707;28;20203;-45
2021/05/12 01:21:38;;;;;;;1.52;1.42;;;24.00;35.80;;;;;;5013124;28;20282;-43
2021/05/12 01:24:04;;;;;;;1.73;1.40;;;24.00;35.70;;;;;;5011893;28;20659;-50
2021/05/12 01:26:30;;;;;;;1.95;1.50;;;24.10;35.80;;;;;;5010811;28;20737;-45
2021/05/12 01:28:56;;;;;;;1.40;1.30;;;24.10;35.70;;;;;;5012236;28;20198;-42
2021/05/12 01:31:22;;;;;;;1.38;1.27;;;24.10;35.70;;;;;;5011483;28;20269;-46
2021/05/12 01:33:49;;;;;;;1.83;1.50;;;24.00;35.60;;;;;;5011709;28;20207;-47
2021/05/12 01:36:15;;;;;;;1.50;1.40;;;24.10;35.80;;;;;;5009897;28;20225;-50
2021/05/12 01:38:41;;;;;;;1.88;1.40;;;24.10;35.90;;;;;;5012273;28;20200;-43
2021/05/12 01:41:07;;;;;;;3.17;1.63;;;24.10;35.90;;;;;;5012431;28;20215;-45
2021/05/12 01:43:33;;;;;;;2.00;1.52;;;24.00;35.60;;;;;;5010974;28;20357;-45
2021/05/12 01:45:59;;;;;;;2.17;1.42;;;24.00;35.70;;;;;;5010905;28;20210;-48
2021/05/12 01:48:25;;;;;;;2.17;1.80;;;24.10;35.80;;;;;;5013118;28;20535;-43
2021/05/12 01:50:51;;;;;;;2.28;1.38;;;24.00;35.70;;;;;;5016547;28;20234;-42
2021/05/12 01:53:17;;;;;;;1.50;1.38;;;24.10;36.00;;;;;;5011400;28;20297;-48
2021/05/12 01:55:43;;;;;;;1.60;1.50;;;24.00;35.70;;;;;;5009079;28;20257;-43
2021/05/12 01:58:09;;;;;;;1.50;1.40;;;24.10;35.90;;;;;;5011719;28;20203;-49
2021/05/12 02:00:35;;;;;;;2.35;1.40;;;24.00;35.80;;;;;;5012365;28;20532;-41
2021/05/12 02:03:04;;;;;;;2.08;1.38;;;24.10;35.90;;;;;;5010565;28;20230;-43
2021/05/12 02:05:30;;;;;;;3.45;1.67;;;24.00;35.90;;;;;;5009447;28;20218;-45
2021/05/12 02:07:56;;;;;;;2.70;1.67;;;24.00;36.10;;;;;;5012340;28;20231;-50
2021/05/12 02:10:22;;;;;;;1.52;1.42;;;24.00;36.00;;;;;;5010946;28;20222;-47
2021/05/12 02:12:48;;;;;;;1.38;1.27;;;24.00;36.00;;;;;;5010633;28;20234;-44
2021/05/12 02:15:13;;;;;;;3.15;1.50;;;24.00;36.00;;;;;;5010527;28;20199;-40
2021/05/12 02:17:39;;;;;;;1.50;1.40;;;24.00;36.10;;;;;;5011228;28;20258;-48
2021/05/12 02:20:05;;;;;;;1.52;1.40;;;24.10;36.20;;;;;;5011828;28;20210;-40
2021/05/12 02:22:31;;;;;;;2.03;1.50;;;24.00;36.00;;;;;;5011457;28;20241;-48
2021/05/12 02:24:57;;;;;;;1.42;1.33;;;24.10;36.10;;;;;;5011785;28;20199;-41
2021/05/12 02:27:23;;;;;;;1.48;1.38;;;24.00;36.00;;;;;;5009464;28;20230;-41
2021/05/12 02:29:49;;;;;;;1.77;1.40;;;24.00;36.20;;;;;;5010427;28;20199;-42
2021/05/12 02:32:15;;;;;;;1.98;1.42;;;24.00;36.20;;;;;;5007607;28;20293;-43
2021/05/12 02:34:41;;;;;;;2.95;1.50;;;24.00;36.20;;;;;;5011315;28;20199;-48
2021/05/12 02:37:07;;;;;;;1.75;1.55;;;24.00;36.20;;;;;;5010801;28;20652;-42
2021/05/12 02:39:33;;;;;;;1.58;1.40;;;24.00;36.20;;;;;;5011039;28;20233;-45
2021/05/12 02:41:59;;;;;;;1.30;1.20;;;24.00;36.30;;;;;;5011502;28;20627;-47
2021/05/12 02:44:25;;;;;;;1.85;1.42;;;24.00;36.00;;;;;;5010572;28;20207;-43
2021/05/12 02:46:51;;;;;;;1.83;1.40;;;24.00;36.00;;;;;;5010364;28;20234;-40
2021/05/12 02:49:17;;;;;;;1.42;1.33;;;24.00;36.00;;;;;;5010814;28;20647;-40
2021/05/12 02:51:43;;;;;;;1.33;1.20;;;24.00;36.00;;;;;;5011851;28;20215;-54
2021/05/12 02:54:09;;;;;;;2.05;1.35;;;24.00;36.00;;;;;;5010199;28;20203;-48
2021/05/12 02:56:35;;;;;;;1.67;1.50;;;24.00;36.00;;;;;;5009976;28;20222;-46
2021/05/12 02:59:01;;;;;;;1.38;1.27;;;24.00;36.00;;;;;;5011598;28;20214;-43
2021/05/12 03:01:27;;;;;;;1.60;1.50;;;24.00;36.00;;;;;;5010236;28;20300;-50
2021/05/12 03:03:53;;;;;;;1.38;1.27;;;24.10;36.00;;;;;;5010973;28;20199;-42
2021/05/12 03:06:19;;;;;;;2.03;1.40;;;24.00;35.80;;;;;;5009997;28;20245;-41
2021/05/12 03:08:45;;;;;;;1.40;1.30;;;24.00;35.80;;;;;;5010316;28;20199;-41
2021/05/12 03:11:11;;;;;;;1.70;1.30;;;24.00;35.80;;;;;;5010644;28;20234;-46
2021/05/12 03:13:37;;;;;;;1.38;1.27;;;24.00;36.60;;;;;;5009924;28;20208;-47
2021/05/12 03:16:03;;;;;;;1.67;1.40;;;24.00;36.20;;;;;;5010773;28;20232;-49
2021/05/12 03:18:29;;;;;;;1.30;1.20;;;24.00;36.00;;;;;;5009266;28;20207;-48
2021/05/12 03:20:55;;;;;;;1.33;1.23;;;24.00;36.10;;;;;;5011473;28;20202;-41
2021/05/12 03:23:21;;;;;;;4.53;1.40;;;24.00;36.20;;;;;;5009655;28;20223;-42
2021/05/12 03:25:47;;;;;;;1.48;1.20;;;24.00;36.30;;;;;;5009639;28;20203;-45
2021/05/12 03:28:13;;;;;;;2.20;1.30;;;24.00;37.00;;;;;;5009179;28;20238;-42
2021/05/12 03:30:39;;;;;;;1.40;1.30;;;24.00;36.30;;;;;;5009035;28;20218;-45
2021/05/12 03:33:05;;;;;;;1.48;1.10;;;24.00;36.30;;;;;;5010851;28;20222;-41
2021/05/12 03:35:31;;;;;;;2.05;1.80;;;24.00;36.30;;;;;;5009774;28;20260;-49
2021/05/12 03:37:57;;;;;;;3.15;1.20;;;24.00;36.30;;;;;;5010034;28;20250;-40
2021/05/12 03:40:23;;;;;;;1.95;1.30;;;24.00;36.30;;;;;;5010557;28;20555;-43
2021/05/12 03:42:49;;;;;;;1.17;1.10;;;24.00;36.30;;;;;;5010123;28;20226;-39
2021/05/12 03:45:15;;;;;;;2.38;1.30;;;24.00;36.20;;;;;;5010238;28;20537;-45
2021/05/12 03:47:42;;;;;;;1.95;1.17;;;24.00;36.30;;;;;;5008615;28;20249;-43
2021/05/12 03:50:08;;;;;;;2.13;1.30;;;24.00;36.40;;;;;;5008012;28;20203;-44
2021/05/12 03:52:34;;;;;;;1.50;1.40;;;24.00;36.40;;;;;;5008901;28;20222;-41
2021/05/12 03:55:00;;;;;;;2.38;1.30;;;24.00;36.80;;;;;;5010499;28;20656;-40
2021/05/12 03:57:26;;;;;;;1.42;1.30;;;24.00;37.10;;;;;;5009999;28;20195;-41
2021/05/12 03:59:52;;;;;;;1.20;1.10;;;24.00;37.20;;;;;;5009203;28;20218;-42
2021/05/12 04:02:18;;;;;;;1.25;1.15;;;24.00;37.10;;;;;;5008928;28;20219;-40
2021/05/12 04:04:44;;;;;;;2.03;1.23;;;24.00;36.80;;;;;;5010500;28;20302;-46
2021/05/12 04:07:10;;;;;;;1.40;1.30;;;24.00;36.80;;;;;;5009788;28;20234;-43
2021/05/12 04:09:36;;;;;;;1.38;1.27;;;24.00;36.60;;;;;;5005335;28;20200;-48
2021/05/12 04:12:02;;;;;;;1.40;1.30;;;24.00;36.40;;;;;;5009349;28;20242;-49
2021/05/12 04:14:28;;;;;;;1.45;1.08;;;24.00;36.40;;;;;;5009205;28;20558;-45
2021/05/12 04:16:54;;;;;;;1.60;1.33;;;24.00;36.30;;;;;;5008992;28;20220;-42
2021/05/12 04:19:20;;;;;;;1.48;1.30;;;24.00;36.10;;;;;;5010747;28;20206;-48
2021/05/12 04:21:46;;;;;;;1.20;1.10;;;24.00;35.90;;;;;;5013756;28;20722;-48
2021/05/12 04:24:12;;;;;;;1.40;1.30;;;24.10;35.90;;;;;;5014200;28;20675;-48
2021/05/12 04:26:38;;;;;;;2.47;1.30;;;24.00;35.70;;;;;;5013281;28;20230;-41
2021/05/12 04:29:04;;;;;;;1.10;1.00;;;24.00;35.60;;;;;;5013360;28;20206;-40
2021/05/12 04:31:30;;;;;;;1.38;1.20;;;24.10;35.70;;;;;;5012426;28;20222;-41
2021/05/12 04:33:56;;;;;;;1.35;1.10;;;24.00;35.80;;;;;;5013255;28;20230;-45
2021/05/12 04:36:22;;;;;;;2.63;1.52;;;24.00;35.70;;;;;;5014129;28;20237;-42
2021/05/12 04:38:48;;;;;;;1.55;1.10;;;24.00;36.30;;;;;;5013747;28;20203;-44
2021/05/12 04:41:15;;;;;;;2.80;1.20;;;24.00;35.90;;;;;;5013069;28;20223;-43
2021/05/12 04:43:41;;;;;;;1.10;1.02;;;24.00;35.80;;;;;;5013684;28;20286;-41
2021/05/12 04:46:07;;;;;;;1.10;1.00;;;24.00;35.90;;;;;;5013000;28;20670;-46
2021/05/12 04:48:33;;;;;;;1.52;1.30;;;24.00;35.80;;;;;;4995689;28;20557;-44
2021/05/12 04:50:59;;;;;;;1.20;1.10;;;24.00;35.80;;;;;;5013038;28;20289;-46
2021/05/12 04:53:25;;;;;;;1.98;1.38;;;24.00;36.00;;;;;;5013569;28;20202;-46
2021/05/12 04:55:51;;;;;;;1.55;1.40;;;24.00;35.90;;;;;;5013532;28;20246;-41
2021/05/12 04:58:17;;;;;;;1.23;1.20;;;24.00;35.90;;;;;;5014017;28;20660;-48
2021/05/12 05:00:43;;;;;;;1.70;1.20;;;24.00;36.00;;;;;;5012551;28;20214;-45
2021/05/12 05:03:09;;;;;;;1.88;1.20;;;24.00;36.00;;;;;;5014082;28;20201;-45
2021/05/12 05:05:35;;;;;;;1.30;1.20;;;24.00;35.90;;;;;;5011585;28;20612;-50
2021/05/12 05:08:01;;;;;;;1.40;1.30;;;24.00;35.90;;;;;;5014169;28;20231;-47
2021/05/12 05:10:27;;;;;;;1.13;1.02;;;24.00;35.90;;;;;;5004353;28;20648;-49
2021/05/12 05:12:53;;;;;;;1.10;1.00;;;24.00;35.90;;;;;;4998512;28;20223;-42
2021/05/12 05:15:19;;;;;;;1.20;1.10;;;24.00;35.90;;;;;;5013510;28;20742;-41
2021/05/12 05:17:45;;;;;;;1.42;1.20;;;24.00;35.80;;;;;;5012436;28;20204;-41
2021/05/12 05:20:12;;;;;;;1.38;1.00;;;24.00;35.80;;;;;;5012244;28;20195;-41
2021/05/12 05:22:38;;;;;;;1.95;1.25;;;24.00;35.80;;;;;;5012499;28;20308;-40
2021/05/12 05:25:04;;;;;;;1.33;1.13;;;24.00;35.80;;;;;;5012415;28;20212;-43
2021/05/12 05:27:30;;;;;;;2.42;1.00;;;24.00;35.80;;;;;;5011605;28;20316;-41
2021/05/12 05:29:56;;;;;;;1.20;1.10;;;24.00;35.80;;;;;;5011860;28;20199;-44
2021/05/12 05:32:22;;;;;;;2.22;1.02;;;24.00;35.90;;;;;;5010469;28;20230;-50
2021/05/12 05:34:48;;;;;;;1.30;1.20;;;24.00;35.80;;;;;;5011544;28;20199;-45
2021/05/12 05:37:14;;;;;;;1.90;0.93;;;24.00;35.80;;;;;;5013254;28;20686;-43
2021/05/12 05:39:40;;;;;;;1.15;1.08;;;24.00;35.70;;;;;;5012476;28;20223;-41
2021/05/12 05:42:06;;;;;;;1.10;1.00;;;24.00;35.70;;;;;;5013015;28;20223;-47
2021/05/12 05:44:32;;;;;;;1.10;1.00;;;24.00;35.70;;;;;;5009134;28;20258;-42
2021/05/12 05:46:58;;;;;;;2.33;1.10;;;24.00;35.60;;;;;;5012012;28;20285;-43
2021/05/12 05:49:24;;;;;;;1.20;1.10;;;24.00;35.60;;;;;;5012146;28;20210;-44
2021/05/12 05:51:51;;;;;;;1.30;1.20;;;24.00;35.50;;;;;;5006859;28;20234;-47
2021/05/12 05:54:17;;;;;;;1.58;1.40;;;24.00;35.60;;;;;;5011941;28;20686;-43
2021/05/12 05:56:43;;;;;;;1.10;1.02;;;24.00;35.70;;;;;;5011836;28;20269;-51
2021/05/12 05:59:09;;;;;;;1.33;1.20;;;24.00;35.60;;;;;;5011732;28;20227;-44
2021/05/12 06:01:35;;;;;;;1.30;1.13;;;24.00;35.50;;;;;;5012988;28;20223;-44
2021/05/12 06:04:01;;;;;;;1.17;1.08;;;24.00;35.60;;;;;;5010175;28;20207;-45
2021/05/12 06:06:27;;;;;;;1.38;1.27;;;24.00;35.60;;;;;;5011786;28;20223;-46
2021/05/12 06:08:53;;;;;;;1.25;1.02;;;24.00;35.60;;;;;;5010838;28;20202;-51
2021/05/12 06:11:19;;;;;;;0.95;0.95;;;24.00;35.60;;;;;;5012165;28;20695;-50
2021/05/12 06:13:46;;;;;;;1.27;1.15;;;24.00;35.70;;;;;;5011376;28;20257;-45
2021/05/12 06:16:12;;;;;;;1.25;1.10;;;24.00;35.60;;;;;;5012080;28;20211;-46
2021/05/12 06:18:38;;;;;;;1.02;1.02;;;24.00;35.60;;;;;;5012415;28;20258;-43
2021/05/12 06:21:04;;;;;;;1.38;1.20;;;24.00;35.60;;;;;;5010414;28;20278;-46
2021/05/12 06:23:30;;;;;;;1.30;1.20;;;24.00;35.60;;;;;;5010534;28;20547;-42
2021/05/12 06:25:57;;;;;;;1.33;1.10;;;24.00;36.30;;;;;;5010036;28;20200;-41
2021/05/12 06:28:23;;;;;;;1.02;1.02;;;24.00;35.60;;;;;;5012732;28;20237;-45
2021/05/12 06:30:49;;;;;;;1.05;0.93;;;24.00;35.70;;;;;;5010838;28;20250;-44
2021/05/12 06:33:15;;;;;;;0.93;0.90;;;24.00;35.70;;;;;;5010740;28;20233;-44
2021/05/12 06:35:41;;;;;;;1.20;1.10;;;24.00;35.80;;;;;;5009921;28;20860;-52
2021/05/12 06:38:07;;;;;;;1.05;0.95;;;24.00;35.80;;;;;;5010131;28;20293;-45
2021/05/12 06:40:34;;;;;;;0.90;0.90;;;24.00;36.00;;;;;;5011698;28;20227;-41
2021/05/12 06:43:00;;;;;;;1.13;1.00;;;24.00;36.20;;;;;;5010372;28;20203;-46
2021/05/12 06:45:26;;;;;;;2.00;1.20;;;24.00;36.20;;;;;;5011321;28;20641;-49
2021/05/12 06:47:54;;;;;;;1.45;1.25;;;24.00;36.30;;;;;;5011150;28;20385;-48
2021/05/12 06:50:20;;;;;;;1.02;0.98;;;24.00;36.10;;;;;;5011965;28;20291;-41
2021/05/12 06:52:46;;;;;;;1.95;0.90;;;24.00;36.10;;;;;;5010597;28;20513;-49
2021/05/12 06:55:12;;;;;;;1.70;1.00;;;24.00;35.80;;;;;;5010793;28;20199;-44
2021/05/12 06:57:38;;;;;;;1.00;0.95;;;24.00;35.70;;;;;;5010953;28;20207;-41
2021/05/12 07:00:04;;;;;;;1.35;1.10;;;24.00;35.70;;;;;;5006037;28;20246;-43
2021/05/12 07:02:30;;;;;;;1.10;0.95;;;24.00;35.70;;;;;;5009890;28;20223;-48
2021/05/12 07:04:56;;;;;;;1.20;1.10;;;24.00;35.70;;;;;;5010203;28;20222;-44
2021/05/12 07:07:22;;;;;;;1.00;0.90;;;24.00;35.70;;;;;;5008939;28;20257;-45
2021/05/12 07:09:48;;;;;;;3.92;1.20;;;24.10;36.10;;;;;;4997804;28;20199;-42
2021/05/12 07:12:14;;;;;;;2.58;1.10;;;24.20;36.50;;;;;;5006265;28;20254;-40
2021/05/12 07:14:40;;;;;;;4.03;1.23;;;24.20;36.80;;;;;;5009909;28;20226;-40
2021/05/12 07:17:06;;;;;;;4.15;1.00;;;24.20;36.80;;;;;;5011439;28;20223;-42
2021/05/12 07:19:32;;;;;;;2.00;0.95;;;24.20;36.00;;;;;;5014040;28;20207;-43
2021/05/12 07:21:58;;;;;;;1.70;1.20;;;24.20;36.50;;;;;;5010619;28;20643;-39
2021/05/12 07:24:24;;;;;;;2.10;1.20;;;24.20;37.50;;;;;;5008654;28;20242;-41
2021/05/12 07:26:50;;;;;;;3.17;1.02;;;24.20;36.90;;;;;;5009606;28;20571;-44
2021/05/12 07:29:16;;;;;;;1.90;1.05;;;24.10;37.30;;;;;;5010216;28;20249;-44
2021/05/12 07:31:42;;;;;;;2.83;1.40;;;24.20;38.30;;;;;;5009371;28;20231;-39
2021/05/12 07:34:10;;;;;;;1.75;1.25;;;24.20;37.70;;;;;;5008822;28;20298;-46
2021/05/12 07:36:37;;;;;;;3.42;1.45;;;24.10;38.20;;;;;;5008782;28;20638;-40
2021/05/12 07:39:03;;;;;;;1.80;1.20;;;24.10;38.30;;;;;;4999295;28;20346;-46
2021/05/12 07:41:29;;;;;;;1.90;1.42;;;24.00;38.90;;;;;;4999685;28;20227;-46
2021/05/12 07:43:55;;;;;;;2.83;1.30;;;24.00;39.20;;;;;;5010603;28;20199;-43
2021/05/12 07:46:21;;;;;;;2.67;1.20;;;24.00;39.80;;;;;;5009639;28;20576;-47
2021/05/12 07:48:47;;;;;;;1.00;0.90;;;24.00;39.20;;;;;;5010324;28;20273;-56
2021/05/12 07:51:13;;;;;;;1.17;0.90;;;20.50;37.20;;;;;;5007959;28;20240;-47
2021/05/12 07:53:39;;;;;;;1.10;1.00;;;18.20;42.00;;;;;;5010338;28;20230;-37
2021/05/12 07:56:05;;;;;;;0.93;0.93;;;18.20;42.50;;;;;;5012961;28;20590;-47
2021/05/12 07:58:31;;;;;;;1.47;0.87;;;17.70;43.60;;;;;;5013191;28;20214;-36
2021/05/12 08:01:03;;;;;;;1.43;0.80;;;17.30;44.30;;;;;;5012552;28;20241;-36
2021/05/12 08:03:29;;;;;;;0.80;0.80;;;17.40;44.70;;;;;;5012380;28;20318;-36
2021/05/12 08:05:55;;;;;;;0.80;0.80;;;17.50;44.90;;;;;;5008297;28;20231;-41
2021/05/12 08:08:21;;;;;;;0.80;0.80;;;19.30;42.30;;;;;;5011872;28;20648;-40
2021/05/12 08:10:47;;;;;;;1.27;0.70;;;20.40;39.70;;;;;;5011993;28;20298;-36
2021/05/12 08:13:13;;;;;;;0.70;0.70;;;21.10;38.50;;;;;;5014324;28;20230;-41
2021/05/12 08:15:39;;;;;;;0.93;0.80;;;21.50;37.70;;;;;;5011758;28;20679;-45
2021/05/12 08:18:05;;;;;;;0.70;0.70;;;21.80;37.30;;;;;;5010965;28;20215;-40
2021/05/12 08:20:31;;;;;;;0.80;0.80;;;22.10;37.30;;;;;;5009055;28;20591;-34
2021/05/12 08:22:57;;;;;;;1.23;0.70;;;22.30;37.20;;;;;;5011578;28;20261;-37
2021/05/12 08:25:23;;;;;;;0.70;0.70;;;22.40;37.60;;;;;;5010622;28;20682;-39
2021/05/12 08:27:52;;;;;;;0.80;0.80;;;22.50;37.10;;;;;;5010813;28;20296;-37
2021/05/12 08:30:21;;;;;;;0.73;0.70;;;22.70;37.00;;;;;;5011968;28;20216;-44
2021/05/12 08:32:47;;;;;;;0.77;0.77;;;22.80;37.10;;;;;;5011174;28;20211;-46
2021/05/12 08:35:13;;;;;;;1.25;0.82;;;22.80;37.10;;;;;;5011826;28;20299;-39
2021/05/12 08:37:39;;;;;;;0.90;0.90;;;22.90;37.10;;;;;;5012437;28;20211;-45
2021/05/12 08:40:05;;;;;;;0.67;0.67;;;23.00;37.20;;;;;;5003569;28;20245;-37
2021/05/12 08:42:31;;;;;;;1.30;0.82;;;23.00;37.90;;;;;;5007660;28;20253;-38
2021/05/12 08:44:57;;;;;;;0.73;0.73;;;23.00;37.20;;;;;;5011590;28;20252;-36
2021/05/12 08:47:23;;;;;;;0.80;0.80;;;23.10;37.30;;;;;;5012369;28;20589;-39
2021/05/12 08:49:49;;;;;;;0.80;0.80;;;23.10;36.80;;;;;;5009195;28;20208;-39
2021/05/12 08:52:15;;;;;;;0.77;0.77;;;23.20;36.90;;;;;;5012060;28;20230;-49
2021/05/12 08:54:41;;;;;;;0.70;0.70;;;23.20;36.80;;;;;;5009912;28;20576;-38
2021/05/12 08:57:07;;;;;;;0.77;0.75;;;23.20;36.70;;;;;;5002493;28;20226;-37
2021/05/12 08:59:33;;;;;;;1.88;0.80;;;23.20;36.70;;;;;;5007025;28;20207;-41
2021/05/12 09:01:59;;;;;;;1.83;0.80;;;23.20;37.00;;;;;;5007250;28;20254;-39
2021/05/12 09:04:25;;;;;;;1.48;0.90;;;23.20;37.10;;;;;;5008323;28;20206;-46
2021/05/12 09:06:52;;;;;;;0.80;0.80;;;23.20;37.00;;;;;;5011254;28;20223;-35
2021/05/12 09:09:18;;;;;;;0.82;0.82;;;23.20;36.90;;;;;;5009835;28;20824;-38
2021/05/12 09:11:44;;;;;;;1.00;0.75;;;23.20;36.80;;;;;;5005465;28;20265;-38
2021/05/12 09:14:10;;;;;;;0.93;0.80;;;23.20;36.80;;;;;;5006713;28;20207;-37
2021/05/12 09:16:36;;;;;;;1.17;0.63;;;23.20;37.40;;;;;;5012550;28;20210;-40
2021/05/12 09:19:02;;;;;;;0.70;0.70;;;23.20;36.80;;;;;;5007540;28;20220;-41
2021/05/12 09:21:28;;;;;;;1.48;0.80;;;23.30;37.40;;;;;;5008725;28;21098;-41
2021/05/12 09:23:53;;;;;;;0.73;0.73;;;23.30;36.60;;;;;;5009551;28;20211;-37
2021/05/12 09:26:19;;;;;;;1.15;0.77;;;23.40;36.60;;;;;;5008698;28;20282;-39
2021/05/12 09:28:45;;;;;;;1.30;0.90;;;23.40;37.60;;;;;;5010305;28;20203;-44
2021/05/12 09:31:11;;;;;;;0.82;0.82;;;23.40;37.00;;;;;;5008828;28;20230;-39
2021/05/12 09:33:37;;;;;;;1.55;0.80;;;23.40;37.20;;;;;;5011173;28;20636;-39
2021/05/12 09:36:03;;;;;;;1.23;0.90;;;23.40;36.70;;;;;;5011620;28;20210;-41
2021/05/12 09:38:29;;;;;;;1.70;0.90;;;23.40;36.50;;;;;;5010580;28;20203;-36
2021/05/12 09:40:55;;;;;;;0.90;0.80;;;23.40;36.50;;;;;;5010049;28;20245;-40
2021/05/12 09:43:21;;;;;;;0.85;0.75;;;23.40;36.50;;;;;;5011801;28;20207;-41
2021/05/12 09:45:47;;;;;;;0.93;0.80;;;23.40;36.50;;;;;;5004369;28;20247;-37
2021/05/12 09:48:13;;;;;;;1.58;0.80;;;23.30;36.40;;;;;;5012474;28;20285;-37
2021/05/12 09:50:41;;;;;;;0.80;0.80;;;23.40;36.50;;;;;;5010362;28;20284;-40
2021/05/12 09:53:08;;;;;;;0.80;0.80;;;23.40;36.30;;;;;;5011215;28;20328;-37
2021/05/12 09:55:34;;;;;;;0.60;0.60;;;23.40;36.20;;;;;;5008817;28;20203;-46
2021/05/12 09:58:00;;;;;;;0.90;0.77;;;23.40;36.10;;;;;;5012185;28;20225;-37
2021/05/12 10:00:26;;;;;;;0.70;0.70;;;23.40;36.00;;;;;;5012423;28;20320;-46
2021/05/12 10:02:52;;;;;;;1.08;0.80;;;23.40;35.90;;;;;;5008933;28;20619;-37
2021/05/12 10:05:18;;;;;;;1.05;0.80;;;23.50;35.90;;;;;;5010178;28;20273;-46
2021/05/12 10:07:44;;;;;;;1.40;0.80;;;23.50;35.70;;;;;;5010891;28;20243;-39
2021/05/12 10:10:10;;;;;;;0.70;0.70;;;23.50;35.70;;;;;;5008915;28;20215;-41
2021/05/12 10:12:36;;;;;;;0.88;0.73;;;23.50;35.90;;;;;;5006969;28;20211;-37
2021/05/12 10:15:02;;;;;;;1.00;0.90;;;23.50;35.70;;;;;;5012214;28;20238;-37
2021/05/12 10:17:28;;;;;;;0.88;0.88;;;23.50;35.90;;;;;;5009316;28;20207;-53
2021/05/12 10:19:54;;;;;;;0.70;0.70;;;23.50;35.80;;;;;;5005906;28;20246;-44
2021/05/12 10:22:20;;;;;;;0.95;0.80;;;23.50;35.80;;;;;;5012359;28;20679;-41
2021/05/12 10:24:46;;;;;;;1.08;0.80;;;23.50;35.80;;;;;;5007677;28;20199;-42
2021/05/12 10:27:12;;;;;;;0.82;0.80;;;23.50;35.80;;;;;;5009254;28;20584;-49
2021/05/12 10:29:38;;;;;;;1.33;0.60;;;23.50;35.80;;;;;;5011422;28;20230;-40
2021/05/12 10:32:04;;;;;;;2.28;0.73;;;23.50;35.90;;;;;;5009252;28;20281;-42
2021/05/12 10:34:30;;;;;;;1.27;0.80;;;23.50;35.80;;;;;;5009487;28;20199;-46
2021/05/12 10:36:56;;;;;;;1.48;0.85;;;23.50;35.90;;;;;;5011814;28;20203;-42
2021/05/12 10:39:22;;;;;;;1.60;0.70;;;23.50;35.90;;;;;;5009898;28;20652;-43
2021/05/12 10:41:49;;;;;;;1.77;0.82;;;23.50;35.80;;;;;;5012544;28;20210;-44
2021/05/12 10:44:18;;;;;;;1.48;0.77;;;23.40;35.70;;;;;;5007212;28;20204;-36
2021/05/12 10:46:44;;;;;;;0.82;0.82;;;23.40;35.70;;;;;;5009649;28;20277;-41
2021/05/12 10:49:10;;;;;;;1.58;0.80;;;23.50;35.80;;;;;;5009037;28;20207;-42
2021/05/12 10:51:36;;;;;;;1.75;0.90;;;23.50;35.80;;;;;;5011415;28;20203;-48
2021/05/12 10:54:03;;;;;;;1.35;0.80;;;23.50;35.90;;;;;;5006320;28;20218;-39
2021/05/12 10:56:29;;;;;;;1.02;0.90;;;23.60;36.00;;;;;;5009443;28;20225;-40
2021/05/12 10:58:55;;;;;;;1.30;0.77;;;23.70;36.20;;;;;;5010351;28;20199;-47
2021/05/12 11:01:21;;;;;;;0.73;0.70;;;23.80;36.10;;;;;;4999766;28;20315;-47
2021/05/12 11:03:47;;;;;;;2.25;1.08;;;23.80;35.90;;;;;;5008629;28;20203;-44
2021/05/12 11:06:14;;;;;;;3.40;0.80;;;23.90;36.20;;;;;;5009036;28;20199;-46
2021/05/12 11:08:40;;;;;;;2.55;0.88;;;23.90;36.20;;;;;;5006146;28;20711;-44
2021/05/12 11:11:06;;;;;;;2.47;0.93;;;23.90;36.30;;;;;;5007195;28;20227;-41
2021/05/12 11:13:32;;;;;;;1.85;0.98;;;23.90;36.30;;;;;;5009201;28;20203;-45
2021/05/12 11:15:58;;;;;;;5.25;1.10;;;23.90;36.20;;;;;;5003890;28;20203;-51
2021/05/12 11:18:24;;;;;;;1.80;1.15;;;23.90;36.30;;;;;;5010976;28;20281;-43
2021/05/12 11:20:50;;;;;;;1.80;0.95;;;23.90;36.60;;;;;;5008611;28;20219;-43
2021/05/12 11:23:16;;;;;;;2.60;1.27;;;23.90;36.80;;;;;;5010414;28;20238;-52
2021/05/12 11:25:44;;;;;;;1.58;1.25;;;24.00;36.90;;;;;;5009175;28;20201;-45
2021/05/12 11:31:38;;;;;;;4.47;1.50;;;24.00;37.10;;;;;;5001020;28;20215;-47
2021/05/12 11:34:04;;;;;;;2.83;1.40;;;24.00;37.10;;;;;;5010381;28;20286;-44
2021/05/12 11:36:33;;;;;;;3.15;2.15;;;24.00;37.40;;;;;;5010585;28;20207;-47
2021/05/12 11:38:59;;;;;;;4.95;1.75;;;24.00;38.00;;;;;;5010026;28;20195;-45
2021/05/12 11:41:25;;;;;;;2.97;1.35;;;24.00;38.10;;;;;;5008997;28;20199;-50
2021/05/12 11:43:51;;;;;;;5.53;2.00;;;24.00;38.10;;;;;;5008896;28;20195;-47
2021/05/12 11:46:17;;;;;;;2.42;1.65;;;24.00;38.10;;;;;;5008171;28;20226;-39
2021/05/12 11:48:43;;;;;;;3.97;1.70;;;24.00;38.10;;;;;;5009061;28;20245;-47
2021/05/12 11:51:09;;;;;;;3.00;1.17;;;24.00;38.10;;;;;;5009617;28;20676;-43
2021/05/12 11:53:35;;;;;;;3.70;1.30;;;24.00;37.30;;;;;;5008953;28;20202;-48
2021/05/12 11:56:01;;;;;;;2.30;1.33;;;23.90;36.60;;;;;;5008310;28;20602;-36
2021/05/12 11:58:27;;;;;;;1.88;1.10;;;23.90;36.30;;;;;;5001178;28;20200;-50
2021/05/12 12:00:56;;;;;;;2.15;1.27;;;23.90;35.70;;;;;;5006044;28;20231;-45
2021/05/12 12:03:24;;;;;;;2.08;1.08;;;23.80;35.70;;;;;;5009807;28;20282;-41
2021/05/12 12:05:55;;;;;;;1.90;0.90;;;23.80;35.40;;;;;;5000032;28;20265;-51
2021/05/12 12:08:22;;;;;;;1.73;1.23;;;23.80;35.20;;;;;;5005781;28;20235;-43
2021/05/12 12:10:48;;;;;;;2.33;1.45;;;23.80;35.20;;;;;;5009520;28;20305;-45
2021/05/12 12:13:14;;;;;;;3.50;1.40;;;23.80;35.20;;;;;;5009100;28;20214;-44
2021/05/12 12:15:40;;;;;;;1.67;1.00;;;23.80;35.20;;;;;;5009455;28;20542;-40
2021/05/12 12:18:06;;;;;;;2.63;1.50;;;23.80;35.20;;;;;;5005943;28;20215;-47
2021/05/12 12:20:32;;;;;;;1.98;1.13;;;23.80;35.20;;;;;;5009986;28;20241;-47
2021/05/12 12:22:58;;;;;;;2.38;1.10;;;23.70;35.20;;;;;;5009977;28;20209;-42
2021/05/12 12:25:29;;;;;;;1.25;1.10;;;23.80;35.20;;;;;;5007546;28;20616;-46
2021/05/12 12:27:55;;;;;;;1.50;0.90;;;23.70;35.10;;;;;;5005590;28;20237;-50
2021/05/12 12:30:21;;;;;;;1.77;1.15;;;23.80;35.20;;;;;;5008817;28;20250;-46
2021/05/12 12:32:47;;;;;;;1.55;0.85;;;23.80;35.20;;;;;;5010154;28;20294;-43
2021/05/12 12:35:13;;;;;;;1.90;1.02;;;23.80;35.20;;;;;;5008309;28;20199;-48
2021/05/12 12:37:42;;;;;;;3.25;1.23;;;23.80;35.20;;;;;;5008381;28;20611;-44
2021/05/12 12:40:08;;;;;;;1.30;0.95;;;23.80;35.20;;;;;;5007080;28;20377;-43
2021/05/12 12:42:34;;;;;;;1.40;1.02;;;23.70;35.00;;;;;;5013255;28;20199;-42
2021/05/12 12:45:01;;;;;;;1.08;0.95;;;23.80;35.20;;;;;;5012372;28;20203;-36